Main page
METAR-TAF:

METAR-TAF

Airports :

Carlos Prates Airport

Belo Horizonte, Minas Gerais, Brazil

latitude: 19-54-33S, longitude: 043-59-21W, elevation: 928 m

Current weather observation

The report was made 10 hours and 7 minutes ago, at 20:00 UTC
Wind 4 kt from the East
Temperature 30°C
Humidity 35%
Pressure 1016 hPa
Visibility 10 km or more
Few clouds at a height of 3500 ft

METAR: SBPR 242000Z 08004KT 9999 FEW035 30/13 Q1016

Time: 03:07 (06:07 UTC)


TAF: missing

Weather observations and forecasts of more than 4000 airports (METAR and TAF reports).

The available stations are represented by yellow and red dots on the map.

Hover mouse over dot to see the name of the station.

Then click to see weather observations and forecasts.

To change the map : click on the green buttons with a black cross to zoom in, on the green button with a dash to zoom out, or on the green arrows for adjacent maps.


METAR-TAF: